sensor_id;sensor_type;location;lat;lon;timestamp;temperature;humidity
3466;DHT22;1747;48.884;9.160;2023-03-11T05:35:35;2.30;99.90
3466;DHT22;1747;48.884;9.160;2023-03-11T05:38:02;2.30;99.90
3466;DHT22;1747;48.884;9.160;2023-03-11T05:40:28;2.20;99.90
3466;DHT22;1747;48.884;9.160;2023-03-11T05:42:55;2.20;99.90
3466;DHT22;1747;48.884;9.160;2023-03-11T05:45:22;2.20;99.90
3466;DHT22;1747;48.884;9.160;2023-03-11T05:47:50;2.20;99.90
3466;DHT22;1747;48.884;9.160;2023-03-11T05:50:17;2.20;99.90
3466;DHT22;1747;48.884;9.160;2023-03-11T05:52:45;2.20;99.90
3466;DHT22;1747;48.884;9.160;2023-03-11T05:55:12;2.20;99.90
3466;DHT22;1747;48.884;9.160;2023-03-11T05:57:39;2.20;99.90
3466;DHT22;1747;48.884;9.160;2023-03-11T06:00:07;2.10;99.90
3466;DHT22;1747;48.884;9.160;2023-03-11T06:02:37;2.10;99.90
3466;DHT22;1747;48.884;9.160;2023-03-11T06:05:06;2.10;99.90
3466;DHT22;1747;48.884;9.160;2023-03-11T06:07:33;2.10;99.90
3466;DHT22;1747;48.884;9.160;2023-03-11T06:10:01;2.00;99.90
3466;DHT22;1747;48.884;9.160;2023-03-11T06:12:29;2.00;99.90
3466;DHT22;1747;48.884;9.160;2023-03-11T06:14:55;1.90;99.90
3466;DHT22;1747;48.884;9.160;2023-03-11T06:17:22;1.90;99.90
3466;DHT22;1747;48.884;9.160;2023-03-11T06:19:49;1.90;99.90
3466;DHT22;1747;48.884;9.160;2023-03-11T06:22:16;2.00;99.90
3466;DHT22;1747;48.884;9.160;2023-03-11T06:24:42;2.00;99.90
3466;DHT22;1747;48.884;9.160;2023-03-11T06:27:10;2.00;99.90
3466;DHT22;1747;48.884;9.160;2023-03-11T06:29:37;2.10;99.90
3466;DHT22;1747;48.884;9.160;2023-03-11T06:32:05;2.10;99.90
3466;DHT22;1747;48.884;9.160;2023-03-11T06:34:31;2.10;99.90
3466;DHT22;1747;48.884;9.160;2023-03-11T06:36:58;2.10;99.90
3466;DHT22;1747;48.884;9.160;2023-03-11T06:39:25;2.10;99.90
3466;DHT22;1747;48.884;9.160;2023-03-11T06:41:52;2.10;99.90
3466;DHT22;1747;48.884;9.160;2023-03-11T06:44:20;2.10;99.90
3466;DHT22;1747;48.884;9.160;2023-03-11T06:46:47;2.20;99.90
3466;DHT22;1747;48.884;9.160;2023-03-11T06:49:14;2.20;99.90
3466;DHT22;1747;48.884;9.160;2023-03-11T06:51:40;2.30;99.90
3466;DHT22;1747;48.884;9.160;2023-03-11T06:54:09;2.40;99.90
3466;DHT22;1747;48.884;9.160;2023-03-11T06:56:35;2.40;99.90
3466;DHT22;1747;48.884;9.160;2023-03-11T06:59:02;2.50;99.90
3466;DHT22;1747;48.884;9.160;2023-03-11T07:01:30;2.50;99.90
3466;DHT22;1747;48.884;9.160;2023-03-11T07:04:02;2.60;99.90
3466;DHT22;1747;48.884;9.160;2023-03-11T07:06:29;2.70;99.90
3466;DHT22;1747;48.884;9.160;2023-03-11T07:08:56;2.70;99.90
3466;DHT22;1747;48.884;9.160;2023-03-11T07:11:24;2.70;99.90
3466;DHT22;1747;48.884;9.160;2023-03-11T07:13:52;2.70;99.90
3466;DHT22;1747;48.884;9.160;2023-03-11T07:16:21;2.80;99.90
3466;DHT22;1747;48.884;9.160;2023-03-11T07:18:50;2.80;99.90
3466;DHT22;1747;48.884;9.160;2023-03-11T07:21:19;2.90;99.90
3466;DHT22;1747;48.884;9.160;2023-03-11T07:23:47;2.90;99.90
3466;DHT22;1747;48.884;9.160;2023-03-11T07:26:15;3.00;99.90
3466;DHT22;1747;48.884;9.160;2023-03-11T07:28:43;3.00;99.90
3466;DHT22;1747;48.884;9.160;2023-03-11T07:31:11;3.00;99.90
3466;DHT22;1747;48.884;9.160;2023-03-11T07:33:39;3.00;99.90
3466;DHT22;1747;48.884;9.160;2023-03-11T07:36:10;3.10;99.90
3466;DHT22;1747;48.884;9.160;2023-03-11T07:38:38;3.00;99.90
3466;DHT22;1747;48.884;9.160;2023-03-11T07:41:05;3.10;99.90
3466;DHT22;1747;48.884;9.160;2023-03-11T07:43:33;3.20;99.90
3466;DHT22;1747;48.884;9.160;2023-03-11T07:46:04;3.20;99.90
3466;DHT22;1747;48.884;9.160;2023-03-11T07:48:31;3.30;99.90
3466;DHT22;1747;48.884;9.160;2023-03-11T07:51:02;3.40;99.90
3466;DHT22;1747;48.884;9.160;2023-03-11T07:53:31;3.50;99.90
3466;DHT22;1747;48.884;9.160;2023-03-11T07:55:58;3.50;99.90
3466;DHT22;1747;48.884;9.160;2023-03-11T07:58:25;3.60;99.90
3466;DHT22;1747;48.884;9.160;2023-03-11T08:00:53;3.70;99.90
3466;DHT22;1747;48.884;9.160;2023-03-11T08:03:22;3.70;99.90
3466;DHT22;1747;48.884;9.160;2023-03-11T08:05:49;3.80;99.90
3466;DHT22;1747;48.884;9.160;2023-03-11T08:08:16;3.80;99.90
3466;DHT22;1747;48.884;9.160;2023-03-11T08:10:44;3.90;99.90
3466;DHT22;1747;48.884;9.160;2023-03-11T08:13:11;3.90;99.90
3466;DHT22;1747;48.884;9.160;2023-03-11T08:15:38;4.00;99.90
3466;DHT22;1747;48.884;9.160;2023-03-11T08:18:05;4.00;99.90
3466;DHT22;1747;48.884;9.160;2023-03-11T08:20:32;4.10;99.90
3466;DHT22;1747;48.884;9.160;2023-03-11T08:22:59;4.20;99.90
3466;DHT22;1747;48.884;9.160;2023-03-11T08:25:26;4.20;99.90
3466;DHT22;1747;48.884;9.160;2023-03-11T08:27:54;4.20;99.90
3466;DHT22;1747;48.884;9.160;2023-03-11T08:30:21;4.30;99.90
3466;DHT22;1747;48.884;9.160;2023-03-11T08:32:49;4.30;99.90
3466;DHT22;1747;48.884;9.160;2023-03-11T08:35:16;4.30;99.90
3466;DHT22;1747;48.884;9.160;2023-03-11T08:37:43;4.50;99.90
3466;DHT22;1747;48.884;9.160;2023-03-11T08:40:14;4.70;99.90
3466;DHT22;1747;48.884;9.160;2023-03-11T08:42:41;4.70;99.90
3466;DHT22;1747;48.884;9.160;2023-03-11T08:45:11;4.70;99.90
3466;DHT22;1747;48.884;9.160;2023-03-11T08:47:38;4.70;99.90
3466;DHT22;1747;48.884;9.160;2023-03-11T08:50:06;4.80;99.90
3466;DHT22;1747;48.884;9.160;2023-03-11T08:52:34;4.90;99.90
3466;DHT22;1747;48.884;9.160;2023-03-11T08:55:01;5.10;99.90
3466;DHT22;1747;48.884;9.160;2023-03-11T08:57:29;5.30;99.90
3466;DHT22;1747;48.884;9.160;2023-03-11T08:59:56;5.30;99.90
3466;DHT22;1747;48.884;9.160;2023-03-11T09:02:25;5.30;99.90
3466;DHT22;1747;48.884;9.160;2023-03-11T09:04:52;5.40;99.90
3466;DHT22;1747;48.884;9.160;2023-03-11T09:07:19;5.40;99.90
3466;DHT22;1747;48.884;9.160;2023-03-11T09:09:46;5.50;99.90
3466;DHT22;1747;48.884;9.160;2023-03-11T09:12:12;5.50;99.90
3466;DHT22;1747;48.884;9.160;2023-03-11T09:14:39;5.40;99.90
3466;DHT22;1747;48.884;9.160;2023-03-11T09:17:07;5.50;99.90
3466;DHT22;1747;48.884;9.160;2023-03-11T09:19:35;5.60;99.90
3466;DHT22;1747;48.884;9.160;2023-03-11T09:22:03;5.70;99.90
3466;DHT22;1747;48.884;9.160;2023-03-11T09:24:32;5.90;99.90
3466;DHT22;1747;48.884;9.160;2023-03-11T09:26:59;6.10;99.90
3466;DHT22;1747;48.884;9.160;2023-03-11T09:29:27;6.20;99.90
3466;DHT22;1747;48.884;9.160;2023-03-11T09:31:54;6.20;99.90
3466;DHT22;1747;48.884;9.160;2023-03-11T09:34:21;6.20;99.90
3466;DHT22;1747;48.884;9.160;2023-03-11T09:36:49;6.40;99.90
3466;DHT22;1747;48.884;9.160;2023-03-11T09:39:16;6.50;99.90
3466;DHT22;1747;48.884;9.160;2023-03-11T09:41:48;6.50;99.90
3466;DHT22;1747;48.884;9.160;2023-03-11T09:44:21;6.50;99.90
3466;DHT22;1747;48.884;9.160;2023-03-11T09:50:16;6.40;99.90
3466;DHT22;1747;48.884;9.160;2023-03-11T09:52:55;6.30;99.90
3466;DHT22;1747;48.884;9.160;2023-03-11T09:55:31;6.20;99.90
3466;DHT22;1747;48.884;9.160;2023-03-11T09:58:02;6.20;99.90
3466;DHT22;1747;48.884;9.160;2023-03-11T10:00:30;6.30;99.90
3466;DHT22;1747;48.884;9.160;2023-03-11T10:02:57;6.40;99.90
3466;DHT22;1747;48.884;9.160;2023-03-11T10:05:27;6.50;99.90
3466;DHT22;1747;48.884;9.160;2023-03-11T10:07:59;6.70;99.60
3466;DHT22;1747;48.884;9.160;2023-03-11T10:10:31;6.90;99.90
3466;DHT22;1747;48.884;9.160;2023-03-11T10:13:05;7.10;99.90
3466;DHT22;1747;48.884;9.160;2023-03-11T10:15:40;7.30;99.20
3466;DHT22;1747;48.884;9.160;2023-03-11T10:18:39;7.40;98.10
3466;DHT22;1747;48.884;9.160;2023-03-11T10:21:15;7.30;98.30
3466;DHT22;1747;48.884;9.160;2023-03-11T10:23:56;7.10;97.60
3466;DHT22;1747;48.884;9.160;2023-03-11T10:26:31;7.10;98.00
3466;DHT22;1747;48.884;9.160;2023-03-11T10:29:02;7.20;97.60
3466;DHT22;1747;48.884;9.160;2023-03-11T10:31:36;7.50;96.90
3466;DHT22;1747;48.884;9.160;2023-03-11T10:34:11;7.70;97.40
3466;DHT22;1747;48.884;9.160;2023-03-11T10:36:52;7.70;96.60
3466;DHT22;1747;48.884;9.160;2023-03-11T10:39:24;7.70;96.80
3466;DHT22;1747;48.884;9.160;2023-03-11T10:41:54;7.60;97.10
3466;DHT22;1747;48.884;9.160;2023-03-11T10:44:26;7.40;97.70
3466;DHT22;1747;48.884;9.160;2023-03-11T10:46:54;7.30;96.50
3466;DHT22;1747;48.884;9.160;2023-03-11T10:49:20;7.30;96.80
3466;DHT22;1747;48.884;9.160;2023-03-11T10:51:49;7.10;96.00
3466;DHT22;1747;48.884;9.160;2023-03-11T10:54:24;7.00;96.20
3466;DHT22;1747;48.884;9.160;2023-03-11T10:56:55;7.10;96.40
3466;DHT22;1747;48.884;9.160;2023-03-11T10:59:26;7.20;94.60
3466;DHT22;1747;48.884;9.160;2023-03-11T11:01:54;7.20;93.40
3466;DHT22;1747;48.884;9.160;2023-03-11T11:04:33;7.30;95.40
3466;DHT22;1747;48.884;9.160;2023-03-11T11:07:20;7.70;94.80
3466;DHT22;1747;48.884;9.160;2023-03-11T11:10:12;7.90;93.80
3466;DHT22;1747;48.884;9.160;2023-03-11T11:12:53;7.90;93.80
3466;DHT22;1747;48.884;9.160;2023-03-11T11:15:23;7.80;93.40
3466;DHT22;1747;48.884;9.160;2023-03-11T11:17:51;7.80;94.30
3466;DHT22;1747;48.884;9.160;2023-03-11T11:20:21;7.80;94.00
3466;DHT22;1747;48.884;9.160;2023-03-11T11:22:50;7.80;93.40
3466;DHT22;1747;48.884;9.160;2023-03-11T11:25:31;7.70;92.60
3466;DHT22;1747;48.884;9.160;2023-03-11T11:28:00;7.60;92.60
3466;DHT22;1747;48.884;9.160;2023-03-11T11:30:28;7.70;92.90
3466;DHT22;1747;48.884;9.160;2023-03-11T11:32:54;7.90;92.30
3466;DHT22;1747;48.884;9.160;2023-03-11T11:35:23;8.10;90.80
3466;DHT22;1747;48.884;9.160;2023-03-11T11:37:51;8.20;91.20
3466;DHT22;1747;48.884;9.160;2023-03-11T11:40:27;8.20;91.80
3466;DHT22;1747;48.884;9.160;2023-03-11T11:42:59;8.10;93.00
3466;DHT22;1747;48.884;9.160;2023-03-11T11:45:33;8.00;93.10
3466;DHT22;1747;48.884;9.160;2023-03-11T11:48:05;7.90;93.20
3466;DHT22;1747;48.884;9.160;2023-03-11T11:50:34;8.00;93.90
3466;DHT22;1747;48.884;9.160;2023-03-11T11:53:10;8.10;92.70
3466;DHT22;1747;48.884;9.160;2023-03-11T11:55:42;8.10;93.60
3466;DHT22;1747;48.884;9.160;2023-03-11T11:58:11;8.30;92.70
3466;DHT22;1747;48.884;9.160;2023-03-11T12:00:47;8.40;93.10
3466;DHT22;1747;48.884;9.160;2023-03-11T12:03:45;8.60;92.00
3466;DHT22;1747;48.884;9.160;2023-03-11T12:06:21;8.70;91.90
3466;DHT22;1747;48.884;9.160;2023-03-11T12:08:58;8.90;91.40
3466;DHT22;1747;48.884;9.160;2023-03-11T12:11:34;9.10;90.70
3466;DHT22;1747;48.884;9.160;2023-03-11T12:14:07;9.50;88.40
3466;DHT22;1747;48.884;9.160;2023-03-11T12:16:41;9.90;88.10
3466;DHT22;1747;48.884;9.160;2023-03-11T12:19:18;10.10;85.90
3466;DHT22;1747;48.884;9.160;2023-03-11T12:22:08;10.00;86.70
3466;DHT22;1747;48.884;9.160;2023-03-11T12:24:54;10.00;87.90
3466;DHT22;1747;48.884;9.160;2023-03-11T12:27:25;10.40;84.30
3466;DHT22;1747;48.884;9.160;2023-03-11T12:29:56;11.00;82.60
3466;DHT22;1747;48.884;9.160;2023-03-11T12:32:30;10.90;81.00
3466;DHT22;1747;48.884;9.160;2023-03-11T12:35:01;11.00;80.10
3466;DHT22;1747;48.884;9.160;2023-03-11T12:37:29;11.20;76.50
3466;DHT22;1747;48.884;9.160;2023-03-11T12:39:56;11.60;77.30
3466;DHT22;1747;48.884;9.160;2023-03-11T12:42:38;12.20;77.70
3466;DHT22;1747;48.884;9.160;2023-03-11T12:48:33;13.20;77.30
3466;DHT22;1747;48.884;9.160;2023-03-11T12:51:01;13.60;70.40
3466;DHT22;1747;48.884;9.160;2023-03-11T12:53:42;14.00;74.10
3466;DHT22;1747;48.884;9.160;2023-03-11T12:56:20;14.40;70.30
3466;DHT22;1747;48.884;9.160;2023-03-11T13:01:55;14.90;66.60
3466;DHT22;1747;48.884;9.160;2023-03-11T13:04:41;15.30;62.70
3466;DHT22;1747;48.884;9.160;2023-03-11T13:07:35;15.60;62.50
3466;DHT22;1747;48.884;9.160;2023-03-11T13:10:22;15.80;62.30
3466;DHT22;1747;48.884;9.160;2023-03-11T13:12:59;16.00;65.00
3466;DHT22;1747;48.884;9.160;2023-03-11T13:15:33;15.70;61.30
3466;DHT22;1747;48.884;9.160;2023-03-11T13:18:02;15.40;61.70
3466;DHT22;1747;48.884;9.160;2023-03-11T13:20:53;15.50;59.70
3466;DHT22;1747;48.884;9.160;2023-03-11T13:23:32;15.30;60.70
3466;DHT22;1747;48.884;9.160;2023-03-11T13:26:28;16.10;62.70
3466;DHT22;1747;48.884;9.160;2023-03-11T13:29:19;16.60;61.00
3466;DHT22;1747;48.884;9.160;2023-03-11T13:31:59;16.40;56.90
3466;DHT22;1747;48.884;9.160;2023-03-11T13:34:35;16.70;56.30
3466;DHT22;1747;48.884;9.160;2023-03-11T13:37:17;16.40;57.10
3466;DHT22;1747;48.884;9.160;2023-03-11T13:40:01;16.60;55.70
3466;DHT22;1747;48.884;9.160;2023-03-11T13:42:34;16.40;60.30
3466;DHT22;1747;48.884;9.160;2023-03-11T13:45:01;16.90;57.50
3466;DHT22;1747;48.884;9.160;2023-03-11T13:47:30;17.20;58.60
3466;DHT22;1747;48.884;9.160;2023-03-11T13:50:11;17.40;57.00
3466;DHT22;1747;48.884;9.160;2023-03-11T13:52:46;17.70;57.60
3466;DHT22;1747;48.884;9.160;2023-03-11T13:55:17;17.90;58.00
3466;DHT22;1747;48.884;9.160;2023-03-11T13:57:49;18.00;54.60
3466;DHT22;1747;48.884;9.160;2023-03-11T14:00:23;18.00;54.00
3466;DHT22;1747;48.884;9.160;2023-03-11T14:02:54;17.80;53.60
3466;DHT22;1747;48.884;9.160;2023-03-11T14:05:24;18.10;54.50
3466;DHT22;1747;48.884;9.160;2023-03-11T14:11:16;18.20;54.40
3466;DHT22;1747;48.884;9.160;2023-03-11T14:13:47;18.00;51.70
3466;DHT22;1747;48.884;9.160;2023-03-11T14:16:30;18.40;54.40
3466;DHT22;1747;48.884;9.160;2023-03-11T14:22:20;18.20;55.00
3466;DHT22;1747;48.884;9.160;2023-03-11T14:24:47;18.20;52.70
3466;DHT22;1747;48.884;9.160;2023-03-11T14:27:16;18.00;52.20
3466;DHT22;1747;48.884;9.160;2023-03-11T14:29:43;17.60;53.30
3466;DHT22;1747;48.884;9.160;2023-03-11T14:32:25;17.20;53.90
3466;DHT22;1747;48.884;9.160;2023-03-11T14:34:52;17.10;53.90
3466;DHT22;1747;48.884;9.160;2023-03-11T14:37:29;16.90;55.00
3466;DHT22;1747;48.884;9.160;2023-03-11T14:39:57;16.90;58.40
3466;DHT22;1747;48.884;9.160;2023-03-11T14:42:27;16.70;54.80
3466;DHT22;1747;48.884;9.160;2023-03-11T14:44:58;16.30;54.50
3466;DHT22;1747;48.884;9.160;2023-03-11T14:47:33;15.80;55.70
3466;DHT22;1747;48.884;9.160;2023-03-11T14:50:02;15.60;56.40
3466;DHT22;1747;48.884;9.160;2023-03-11T14:52:33;15.30;58.00
3466;DHT22;1747;48.884;9.160;2023-03-11T14:55:05;15.30;58.30
3466;DHT22;1747;48.884;9.160;2023-03-11T14:57:37;14.90;57.40
3466;DHT22;1747;48.884;9.160;2023-03-11T15:00:11;14.60;58.10
3466;DHT22;1747;48.884;9.160;2023-03-11T15:02:44;14.20;57.10
3466;DHT22;1747;48.884;9.160;2023-03-11T15:05:17;13.70;59.00
3466;DHT22;1747;48.884;9.160;2023-03-11T15:07:46;13.30;58.30
3466;DHT22;1747;48.884;9.160;2023-03-11T15:10:14;13.40;63.30
3466;DHT22;1747;48.884;9.160;2023-03-11T15:12:43;13.30;60.20
3466;DHT22;1747;48.884;9.160;2023-03-11T15:15:21;13.30;63.60
3466;DHT22;1747;48.884;9.160;2023-03-11T15:17:53;13.20;61.60
3466;DHT22;1747;48.884;9.160;2023-03-11T15:20:26;13.20;63.30
3466;DHT22;1747;48.884;9.160;2023-03-11T15:22:55;13.00;60.30
3466;DHT22;1747;48.884;9.160;2023-03-11T15:25:27;12.90;60.60
3466;DHT22;1747;48.884;9.160;2023-03-11T15:27:55;12.80;61.20
3466;DHT22;1747;48.884;9.160;2023-03-11T15:30:24;12.80;62.60
3466;DHT22;1747;48.884;9.160;2023-03-11T15:32:53;12.60;60.40
3466;DHT22;1747;48.884;9.160;2023-03-11T15:35:22;12.50;61.10
3466;DHT22;1747;48.884;9.160;2023-03-11T15:37:51;12.30;60.70
3466;DHT22;1747;48.884;9.160;2023-03-11T15:40:36;12.10;61.30
3466;DHT22;1747;48.884;9.160;2023-03-11T15:43:18;11.80;61.50
3466;DHT22;1747;48.884;9.160;2023-03-11T15:45:47;11.60;62.00
3466;DHT22;1747;48.884;9.160;2023-03-11T15:48:14;11.50;62.50
3466;DHT22;1747;48.884;9.160;2023-03-11T15:50:46;11.40;67.00
3466;DHT22;1747;48.884;9.160;2023-03-11T15:53:13;11.20;63.90
3466;DHT22;1747;48.884;9.160;2023-03-11T15:55:40;11.00;63.40
3466;DHT22;1747;48.884;9.160;2023-03-11T15:58:10;10.70;64.10
3466;DHT22;1747;48.884;9.160;2023-03-11T16:00:44;10.50;64.30
3466;DHT22;1747;48.884;9.160;2023-03-11T16:03:12;10.30;64.80
3466;DHT22;1747;48.884;9.160;2023-03-11T16:05:38;10.10;64.70
3466;DHT22;1747;48.884;9.160;2023-03-11T16:08:06;10.00;66.00
3466;DHT22;1747;48.884;9.160;2023-03-11T16:10:32;9.90;67.50
3466;DHT22;1747;48.884;9.160;2023-03-11T16:13:00;9.80;65.90
3466;DHT22;1747;48.884;9.160;2023-03-11T16:15:33;9.80;67.00
3466;DHT22;1747;48.884;9.160;2023-03-11T16:18:02;9.70;66.60
3466;DHT22;1747;48.884;9.160;2023-03-11T16:20:32;9.70;66.30
3466;DHT22;1747;48.884;9.160;2023-03-11T16:23:00;9.60;66.10
3466;DHT22;1747;48.884;9.160;2023-03-11T16:25:30;9.40;66.00
3466;DHT22;1747;48.884;9.160;2023-03-11T16:27:58;9.30;66.10
3466;DHT22;1747;48.884;9.160;2023-03-11T16:30:27;9.20;67.50
3466;DHT22;1747;48.884;9.160;2023-03-11T16:32:55;9.10;66.50
3466;DHT22;1747;48.884;9.160;2023-03-11T16:35:22;9.00;66.90
3466;DHT22;1747;48.884;9.160;2023-03-11T16:37:50;9.00;69.30
3466;DHT22;1747;48.884;9.160;2023-03-11T16:40:19;9.00;68.40
3466;DHT22;1747;48.884;9.160;2023-03-11T16:42:46;9.00;68.30
3466;DHT22;1747;48.884;9.160;2023-03-11T16:45:15;9.00;68.00
3466;DHT22;1747;48.884;9.160;2023-03-11T16:47:43;8.90;68.70
3466;DHT22;1747;48.884;9.160;2023-03-11T16:50:11;8.90;67.90
3466;DHT22;1747;48.884;9.160;2023-03-11T16:52:38;8.80;67.20
3466;DHT22;1747;48.884;9.160;2023-03-11T16:55:06;8.60;67.70
3466;DHT22;1747;48.884;9.160;2023-03-11T16:57:33;8.50;69.80
3466;DHT22;1747;48.884;9.160;2023-03-11T17:00:00;8.40;69.50
3466;DHT22;1747;48.884;9.160;2023-03-11T17:02:28;8.40;68.90
3466;DHT22;1747;48.884;9.160;2023-03-11T17:04:55;8.30;69.60
3466;DHT22;1747;48.884;9.160;2023-03-11T17:07:24;8.20;69.30
3466;DHT22;1747;48.884;9.160;2023-03-11T17:09:51;8.20;69.40
3466;DHT22;1747;48.884;9.160;2023-03-11T17:12:18;8.10;69.30
3466;DHT22;1747;48.884;9.160;2023-03-11T17:14:45;8.00;69.60
3466;DHT22;1747;48.884;9.160;2023-03-11T17:17:12;8.00;73.10
3466;DHT22;1747;48.884;9.160;2023-03-11T17:19:38;8.10;73.00
3466;DHT22;1747;48.884;9.160;2023-03-11T17:22:05;8.10;72.30
3466;DHT22;1747;48.884;9.160;2023-03-11T17:24:34;8.20;70.70
3466;DHT22;1747;48.884;9.160;2023-03-11T17:27:01;8.20;71.50
3466;DHT22;1747;48.884;9.160;2023-03-11T17:29:28;8.10;70.30
3466;DHT22;1747;48.884;9.160;2023-03-11T17:31:55;8.10;70.70
3466;DHT22;1747;48.884;9.160;2023-03-11T17:34:22;8.00;70.10
3466;DHT22;1747;48.884;9.160;2023-03-11T17:36:50;7.90;70.40
3466;DHT22;1747;48.884;9.160;2023-03-11T17:39:17;7.80;70.50
3466;DHT22;1747;48.884;9.160;2023-03-11T17:41:46;7.70;71.00
3466;DHT22;1747;48.884;9.160;2023-03-11T17:44:13;7.70;70.70
3466;DHT22;1747;48.884;9.160;2023-03-11T17:46:40;7.60;70.70
3466;DHT22;1747;48.884;9.160;2023-03-11T17:49:12;7.60;71.00
3466;DHT22;1747;48.884;9.160;2023-03-11T17:51:39;7.50;71.30
3466;DHT22;1747;48.884;9.160;2023-03-11T17:54:06;7.60;74.60
3466;DHT22;1747;48.884;9.160;2023-03-11T17:56:33;7.70;79.10
3466;DHT22;1747;48.884;9.160;2023-03-11T17:59:01;7.80;74.60
3466;DHT22;1747;48.884;9.160;2023-03-11T18:01:28;7.70;73.10
3466;DHT22;1747;48.884;9.160;2023-03-11T18:03:55;7.60;72.30
3466;DHT22;1747;48.884;9.160;2023-03-11T18:06:22;7.50;72.50
3466;DHT22;1747;48.884;9.160;2023-03-11T18:08:49;7.50;73.50
3466;DHT22;1747;48.884;9.160;2023-03-11T18:11:19;7.40;73.80
3466;DHT22;1747;48.884;9.160;2023-03-11T18:13:46;7.40;74.50
3466;DHT22;1747;48.884;9.160;2023-03-11T18:16:16;7.30;75.10
3466;DHT22;1747;48.884;9.160;2023-03-11T18:18:43;7.20;74.90
3466;DHT22;1747;48.884;9.160;2023-03-11T18:21:13;7.20;75.30
3466;DHT22;1747;48.884;9.160;2023-03-11T18:23:40;7.10;75.60
3466;DHT22;1747;48.884;9.160;2023-03-11T18:26:11;7.10;76.20
3466;DHT22;1747;48.884;9.160;2023-03-11T18:28:39;7.10;76.70
3466;DHT22;1747;48.884;9.160;2023-03-11T18:31:07;7.10;77.40
3466;DHT22;1747;48.884;9.160;2023-03-11T18:33:36;7.00;77.70
3466;DHT22;1747;48.884;9.160;2023-03-11T18:36:11;6.90;77.70
3466;DHT22;1747;48.884;9.160;2023-03-11T18:38:38;6.90;76.90
3466;DHT22;1747;48.884;9.160;2023-03-11T18:41:05;6.80;77.40
3466;DHT22;1747;48.884;9.160;2023-03-11T18:43:32;6.80;77.70
3466;DHT22;1747;48.884;9.160;2023-03-11T18:45:59;6.70;78.00
3466;DHT22;1747;48.884;9.160;2023-03-11T18:48:27;6.70;78.50
3466;DHT22;1747;48.884;9.160;2023-03-11T18:50:55;6.60;78.40
3466;DHT22;1747;48.884;9.160;2023-03-11T18:53:22;6.60;77.90
3466;DHT22;1747;48.884;9.160;2023-03-11T18:55:50;6.50;78.20
3466;DHT22;1747;48.884;9.160;2023-03-11T18:58:17;6.50;78.90
3466;DHT22;1747;48.884;9.160;2023-03-11T19:00:44;6.40;79.20
3466;DHT22;1747;48.884;9.160;2023-03-11T19:03:11;6.40;79.60
3466;DHT22;1747;48.884;9.160;2023-03-11T19:05:38;6.30;80.00
3466;DHT22;1747;48.884;9.160;2023-03-11T19:08:06;6.30;80.70
3466;DHT22;1747;48.884;9.160;2023-03-11T19:10:33;6.20;81.00
3466;DHT22;1747;48.884;9.160;2023-03-11T19:13:00;6.10;81.30
3466;DHT22;1747;48.884;9.160;2023-03-11T19:15:27;6.10;81.70
3466;DHT22;1747;48.884;9.160;2023-03-11T19:17:54;6.00;82.30
3466;DHT22;1747;48.884;9.160;2023-03-11T19:20:20;6.00;82.70
3466;DHT22;1747;48.884;9.160;2023-03-11T19:22:52;5.90;83.20
3466;DHT22;1747;48.884;9.160;2023-03-11T19:25:20;5.80;83.60
3466;DHT22;1747;48.884;9.160;2023-03-11T19:27:50;5.80;84.40
3466;DHT22;1747;48.884;9.160;2023-03-11T19:30:17;5.70;84.90
3466;DHT22;1747;48.884;9.160;2023-03-11T19:32:44;5.60;85.40
3466;DHT22;1747;48.884;9.160;2023-03-11T19:35:12;5.50;86.00
3466;DHT22;1747;48.884;9.160;2023-03-11T19:37:41;5.40;86.80
3466;DHT22;1747;48.884;9.160;2023-03-11T19:40:09;5.40;87.70
3466;DHT22;1747;48.884;9.160;2023-03-11T19:42:37;5.30;88.40
3466;DHT22;1747;48.884;9.160;2023-03-11T19:45:05;5.30;88.80
3466;DHT22;1747;48.884;9.160;2023-03-11T19:47:32;5.20;89.10
3466;DHT22;1747;48.884;9.160;2023-03-11T19:49:59;5.10;89.10
3466;DHT22;1747;48.884;9.160;2023-03-11T19:52:26;4.90;89.10
3466;DHT22;1747;48.884;9.160;2023-03-11T19:54:53;4.80;90.10
3466;DHT22;1747;48.884;9.160;2023-03-11T19:57:19;4.70;90.40
3466;DHT22;1747;48.884;9.160;2023-03-11T19:59:48;4.70;90.90
3466;DHT22;1747;48.884;9.160;2023-03-11T20:02:15;4.60;91.30
3466;DHT22;1747;48.884;9.160;2023-03-11T20:04:42;4.60;91.50
3466;DHT22;1747;48.884;9.160;2023-03-11T20:07:09;4.60;91.80
3466;DHT22;1747;48.884;9.160;2023-03-11T20:09:36;4.60;92.10
3466;DHT22;1747;48.884;9.160;2023-03-11T20:12:03;4.60;92.60
3466;DHT22;1747;48.884;9.160;2023-03-11T20:14:29;4.60;93.00
3466;DHT22;1747;48.884;9.160;2023-03-11T20:16:58;4.50;93.40
3466;DHT22;1747;48.884;9.160;2023-03-11T20:19:25;4.50;93.70
3466;DHT22;1747;48.884;9.160;2023-03-11T20:21:51;4.40;94.00
3466;DHT22;1747;48.884;9.160;2023-03-11T20:24:18;4.30;94.30
3466;DHT22;1747;48.884;9.160;2023-03-11T20:26:45;4.30;94.60
3466;DHT22;1747;48.884;9.160;2023-03-11T20:29:12;4.30;94.90
3466;DHT22;1747;48.884;9.160;2023-03-11T20:31:39;4.20;95.20
3466;DHT22;1747;48.884;9.160;2023-03-11T20:34:07;4.20;95.60
3466;DHT22;1747;48.884;9.160;2023-03-11T20:36:34;4.20;96.00
3466;DHT22;1747;48.884;9.160;2023-03-11T20:39:02;4.10;96.20
3466;DHT22;1747;48.884;9.160;2023-03-11T20:41:32;4.00;96.60
3466;DHT22;1747;48.884;9.160;2023-03-11T20:43:59;4.00;97.00
3466;DHT22;1747;48.884;9.160;2023-03-11T20:46:26;4.00;97.50
3466;DHT22;1747;48.884;9.160;2023-03-11T20:48:53;3.90;97.90
3466;DHT22;1747;48.884;9.160;2023-03-11T20:51:22;3.90;98.30
3466;DHT22;1747;48.884;9.160;2023-03-11T20:53:50;3.90;98.60
3466;DHT22;1747;48.884;9.160;2023-03-11T20:56:18;3.80;98.90
3466;DHT22;1747;48.884;9.160;2023-03-11T20:58:47;3.70;99.20
3466;DHT22;1747;48.884;9.160;2023-03-11T21:01:18;3.70;99.60
3466;DHT22;1747;48.884;9.160;2023-03-11T21:03:45;3.70;99.90
3466;DHT22;1747;48.884;9.160;2023-03-11T21:06:14;3.70;99.90
3466;DHT22;1747;48.884;9.160;2023-03-11T21:08:43;3.60;99.90
3466;DHT22;1747;48.884;9.160;2023-03-11T21:11:10;3.60;99.90
3466;DHT22;1747;48.884;9.160;2023-03-11T21:13:37;3.60;99.90
3466;DHT22;1747;48.884;9.160;2023-03-11T21:16:05;3.60;99.90
3466;DHT22;1747;48.884;9.160;2023-03-11T21:18:32;3.60;99.90
3466;DHT22;1747;48.884;9.160;2023-03-11T21:20:59;3.60;99.90
3466;DHT22;1747;48.884;9.160;2023-03-11T21:23:26;3.50;99.90
3466;DHT22;1747;48.884;9.160;2023-03-11T21:25:58;3.50;99.90
3466;DHT22;1747;48.884;9.160;2023-03-11T21:28:26;3.40;99.90
3466;DHT22;1747;48.884;9.160;2023-03-11T21:30:57;3.40;99.90
3466;DHT22;1747;48.884;9.160;2023-03-11T21:33:25;3.40;99.90
3466;DHT22;1747;48.884;9.160;2023-03-11T21:35:52;3.30;99.90
3466;DHT22;1747;48.884;9.160;2023-03-11T21:38:19;3.20;99.90
3466;DHT22;1747;48.884;9.160;2023-03-11T21:40:46;3.20;99.90
3466;DHT22;1747;48.884;9.160;2023-03-11T21:43:15;3.20;99.90
3466;DHT22;1747;48.884;9.160;2023-03-11T21:45:42;3.20;99.90
3466;DHT22;1747;48.884;9.160;2023-03-11T21:48:09;3.20;99.90
3466;DHT22;1747;48.884;9.160;2023-03-11T21:50:38;3.20;99.90
3466;DHT22;1747;48.884;9.160;2023-03-11T21:53:06;3.20;99.90
3466;DHT22;1747;48.884;9.160;2023-03-11T21:55:33;3.10;99.90
3466;DHT22;1747;48.884;9.160;2023-03-11T21:58:00;3.10;99.90
3466;DHT22;1747;48.884;9.160;2023-03-11T22:00:28;3.10;99.90
3466;DHT22;1747;48.884;9.160;2023-03-11T22:02:55;3.10;99.90
3466;DHT22;1747;48.884;9.160;2023-03-11T22:05:22;3.00;99.90
3466;DHT22;1747;48.884;9.160;2023-03-11T22:07:48;3.00;99.90
3466;DHT22;1747;48.884;9.160;2023-03-11T22:10:16;3.00;99.90
3466;DHT22;1747;48.884;9.160;2023-03-11T22:12:43;3.00;99.90
3466;DHT22;1747;48.884;9.160;2023-03-11T22:15:10;3.00;99.90
3466;DHT22;1747;48.884;9.160;2023-03-11T22:17:38;2.90;99.90
3466;DHT22;1747;48.884;9.160;2023-03-11T22:20:06;2.90;99.90
3466;DHT22;1747;48.884;9.160;2023-03-11T22:22:34;2.90;99.90